sensor_id;sensor_type;location;lat;lon;timestamp;temperature;humidity
52321;DHT22;38261;54.090;13.382;2023-10-08T00:00:15;11.70;99.90
52321;DHT22;38261;54.090;13.382;2023-10-08T00:01:56;11.70;99.90
52321;DHT22;38261;54.090;13.382;2023-10-08T00:03:18;11.70;99.90
52321;DHT22;38261;54.090;13.382;2023-10-08T00:04:42;11.70;99.90
52321;DHT22;38261;54.090;13.382;2023-10-08T00:06:06;11.70;99.90
52321;DHT22;38261;54.090;13.382;2023-10-08T00:07:28;11.70;99.90
52321;DHT22;38261;54.090;13.382;2023-10-08T00:08:51;11.60;99.90
52321;DHT22;38261;54.090;13.382;2023-10-08T00:10:13;11.60;99.90
52321;DHT22;38261;54.090;13.382;2023-10-08T00:11:35;11.60;99.90
52321;DHT22;38261;54.090;13.382;2023-10-08T00:12:58;11.60;99.90
52321;DHT22;38261;54.090;13.382;2023-10-08T00:14:20;11.60;99.90
52321;DHT22;38261;54.090;13.382;2023-10-08T00:15:44;11.60;99.90
52321;DHT22;38261;54.090;13.382;2023-10-08T00:17:18;11.60;99.90
52321;DHT22;38261;54.090;13.382;2023-10-08T00:18:41;11.60;99.90
52321;DHT22;38261;54.090;13.382;2023-10-08T00:20:10;11.60;99.90
52321;DHT22;38261;54.090;13.382;2023-10-08T00:21:38;11.60;99.90
52321;DHT22;38261;54.090;13.382;2023-10-08T00:23:02;11.60;99.90
52321;DHT22;38261;54.090;13.382;2023-10-08T00:24:29;11.60;99.90
52321;DHT22;38261;54.090;13.382;2023-10-08T00:25:53;11.50;99.90
52321;DHT22;38261;54.090;13.382;2023-10-08T00:27:16;11.50;99.90
52321;DHT22;38261;54.090;13.382;2023-10-08T00:28:39;11.50;99.90
52321;DHT22;38261;54.090;13.382;2023-10-08T00:30:04;11.50;99.90
52321;DHT22;38261;54.090;13.382;2023-10-08T00:31:35;11.50;99.90
52321;DHT22;38261;54.090;13.382;2023-10-08T00:33:05;11.50;99.90
52321;DHT22;38261;54.090;13.382;2023-10-08T00:34:27;11.50;99.90
52321;DHT22;38261;54.090;13.382;2023-10-08T00:35:51;11.50;99.90
52321;DHT22;38261;54.090;13.382;2023-10-08T00:37:13;11.40;99.90
52321;DHT22;38261;54.090;13.382;2023-10-08T00:38:38;11.40;99.90
52321;DHT22;38261;54.090;13.382;2023-10-08T00:40:06;11.40;99.90
52321;DHT22;38261;54.090;13.382;2023-10-08T00:41:37;11.40;99.90
52321;DHT22;38261;54.090;13.382;2023-10-08T00:43:00;11.40;99.90
52321;DHT22;38261;54.090;13.382;2023-10-08T00:44:26;11.40;99.90
52321;DHT22;38261;54.090;13.382;2023-10-08T00:45:51;11.40;99.90
52321;DHT22;38261;54.090;13.382;2023-10-08T00:47:16;11.40;99.90
52321;DHT22;38261;54.090;13.382;2023-10-08T00:48:49;11.40;99.90
52321;DHT22;38261;54.090;13.382;2023-10-08T00:50:12;11.30;99.90
52321;DHT22;38261;54.090;13.382;2023-10-08T00:51:42;11.30;99.90
52321;DHT22;38261;54.090;13.382;2023-10-08T00:53:21;11.30;99.90
52321;DHT22;38261;54.090;13.382;2023-10-08T00:54:45;11.30;99.90
52321;DHT22;38261;54.090;13.382;2023-10-08T00:56:13;11.30;99.90
52321;DHT22;38261;54.090;13.382;2023-10-08T00:57:41;11.30;99.90
52321;DHT22;38261;54.090;13.382;2023-10-08T00:59:07;11.30;99.90
52321;DHT22;38261;54.090;13.382;2023-10-08T01:00:35;11.20;99.90
52321;DHT22;38261;54.090;13.382;2023-10-08T01:02:04;11.20;99.90
52321;DHT22;38261;54.090;13.382;2023-10-08T01:03:29;11.20;99.90
52321;DHT22;38261;54.090;13.382;2023-10-08T01:04:51;11.20;99.90
52321;DHT22;38261;54.090;13.382;2023-10-08T01:06:14;11.10;99.90
52321;DHT22;38261;54.090;13.382;2023-10-08T01:07:42;11.10;99.90
52321;DHT22;38261;54.090;13.382;2023-10-08T01:09:06;11.10;99.90
52321;DHT22;38261;54.090;13.382;2023-10-08T01:10:40;11.10;99.90
52321;DHT22;38261;54.090;13.382;2023-10-08T01:13:46;11.10;99.90
52321;DHT22;38261;54.090;13.382;2023-10-08T01:15:08;11.00;99.90
52321;DHT22;38261;54.090;13.382;2023-10-08T01:16:50;11.00;99.90
52321;DHT22;38261;54.090;13.382;2023-10-08T01:18:12;10.90;99.90
52321;DHT22;38261;54.090;13.382;2023-10-08T01:19:40;10.90;99.90
52321;DHT22;38261;54.090;13.382;2023-10-08T01:21:02;10.80;99.90
52321;DHT22;38261;54.090;13.382;2023-10-08T01:22:33;10.80;99.90
52321;DHT22;38261;54.090;13.382;2023-10-08T01:23:55;10.80;99.90
52321;DHT22;38261;54.090;13.382;2023-10-08T01:25:18;10.70;99.90
52321;DHT22;38261;54.090;13.382;2023-10-08T01:26:45;10.70;99.90
52321;DHT22;38261;54.090;13.382;2023-10-08T01:28:08;10.70;99.90
52321;DHT22;38261;54.090;13.382;2023-10-08T01:29:33;10.60;99.90
52321;DHT22;38261;54.090;13.382;2023-10-08T01:30:57;10.60;99.90
52321;DHT22;38261;54.090;13.382;2023-10-08T01:32:22;10.60;99.90
52321;DHT22;38261;54.090;13.382;2023-10-08T01:33:45;10.50;99.90
52321;DHT22;38261;54.090;13.382;2023-10-08T01:35:12;10.50;99.90
52321;DHT22;38261;54.090;13.382;2023-10-08T01:36:46;10.50;99.90
52321;DHT22;38261;54.090;13.382;2023-10-08T01:38:09;10.40;99.90
52321;DHT22;38261;54.090;13.382;2023-10-08T01:39:36;10.40;99.90
52321;DHT22;38261;54.090;13.382;2023-10-08T01:40:59;10.40;99.90
52321;DHT22;38261;54.090;13.382;2023-10-08T01:42:34;10.40;99.90
52321;DHT22;38261;54.090;13.382;2023-10-08T01:44:00;10.40;99.90
52321;DHT22;38261;54.090;13.382;2023-10-08T01:45:22;10.40;99.90
52321;DHT22;38261;54.090;13.382;2023-10-08T01:46:48;10.30;99.90
52321;DHT22;38261;54.090;13.382;2023-10-08T01:48:11;10.30;99.90
52321;DHT22;38261;54.090;13.382;2023-10-08T01:49:33;10.30;99.90
52321;DHT22;38261;54.090;13.382;2023-10-08T01:50:57;10.30;99.90
52321;DHT22;38261;54.090;13.382;2023-10-08T01:52:23;10.30;99.90
52321;DHT22;38261;54.090;13.382;2023-10-08T01:53:45;10.20;99.90
52321;DHT22;38261;54.090;13.382;2023-10-08T01:55:08;10.20;99.90
52321;DHT22;38261;54.090;13.382;2023-10-08T01:56:38;10.10;99.90
52321;DHT22;38261;54.090;13.382;2023-10-08T01:58:03;10.10;99.90
52321;DHT22;38261;54.090;13.382;2023-10-08T01:59:26;10.10;99.90
52321;DHT22;38261;54.090;13.382;2023-10-08T02:00:49;10.00;99.90
52321;DHT22;38261;54.090;13.382;2023-10-08T02:02:11;10.00;99.90
52321;DHT22;38261;54.090;13.382;2023-10-08T02:03:39;10.00;99.90
52321;DHT22;38261;54.090;13.382;2023-10-08T02:05:05;9.90;99.90
52321;DHT22;38261;54.090;13.382;2023-10-08T02:06:30;9.90;99.90
52321;DHT22;38261;54.090;13.382;2023-10-08T02:07:53;9.90;99.90
52321;DHT22;38261;54.090;13.382;2023-10-08T02:09:16;9.90;99.90
52321;DHT22;38261;54.090;13.382;2023-10-08T02:10:40;9.80;99.90
52321;DHT22;38261;54.090;13.382;2023-10-08T02:12:02;9.80;99.90
52321;DHT22;38261;54.090;13.382;2023-10-08T02:13:25;9.80;99.90
52321;DHT22;38261;54.090;13.382;2023-10-08T02:14:48;9.80;99.90
52321;DHT22;38261;54.090;13.382;2023-10-08T02:16:11;9.80;99.90
52321;DHT22;38261;54.090;13.382;2023-10-08T02:17:33;9.70;99.90
52321;DHT22;38261;54.090;13.382;2023-10-08T02:18:56;9.70;99.90
52321;DHT22;38261;54.090;13.382;2023-10-08T02:20:18;9.70;99.90
52321;DHT22;38261;54.090;13.382;2023-10-08T02:21:41;9.60;99.90
52321;DHT22;38261;54.090;13.382;2023-10-08T02:23:03;9.60;99.90
52321;DHT22;38261;54.090;13.382;2023-10-08T02:24:27;9.60;99.90
52321;DHT22;38261;54.090;13.382;2023-10-08T02:25:51;9.50;99.90
52321;DHT22;38261;54.090;13.382;2023-10-08T02:27:14;9.50;99.90
52321;DHT22;38261;54.090;13.382;2023-10-08T02:28:37;9.50;99.90
52321;DHT22;38261;54.090;13.382;2023-10-08T02:30:00;9.40;99.90
52321;DHT22;38261;54.090;13.382;2023-10-08T02:31:25;9.40;99.90
52321;DHT22;38261;54.090;13.382;2023-10-08T02:32:47;9.40;99.90
52321;DHT22;38261;54.090;13.382;2023-10-08T02:34:10;9.30;99.90
52321;DHT22;38261;54.090;13.382;2023-10-08T02:35:34;9.30;99.90
52321;DHT22;38261;54.090;13.382;2023-10-08T02:36:56;9.30;99.90
52321;DHT22;38261;54.090;13.382;2023-10-08T02:38:18;9.30;99.90
52321;DHT22;38261;54.090;13.382;2023-10-08T02:39:43;9.30;99.90
52321;DHT22;38261;54.090;13.382;2023-10-08T02:41:05;9.30;99.90
52321;DHT22;38261;54.090;13.382;2023-10-08T02:42:28;9.20;99.90
52321;DHT22;38261;54.090;13.382;2023-10-08T02:43:50;9.20;99.90
52321;DHT22;38261;54.090;13.382;2023-10-08T02:45:12;9.10;99.90
52321;DHT22;38261;54.090;13.382;2023-10-08T02:46:35;9.10;99.90
52321;DHT22;38261;54.090;13.382;2023-10-08T02:47:59;9.00;99.90
52321;DHT22;38261;54.090;13.382;2023-10-08T02:49:21;9.00;99.90
52321;DHT22;38261;54.090;13.382;2023-10-08T02:50:46;9.00;99.90
52321;DHT22;38261;54.090;13.382;2023-10-08T02:52:09;9.00;99.90
52321;DHT22;38261;54.090;13.382;2023-10-08T02:53:31;8.90;99.90
52321;DHT22;38261;54.090;13.382;2023-10-08T02:54:53;8.90;99.90
52321;DHT22;38261;54.090;13.382;2023-10-08T02:56:15;8.90;99.90
52321;DHT22;38261;54.090;13.382;2023-10-08T02:57:37;8.80;99.90
52321;DHT22;38261;54.090;13.382;2023-10-08T02:59:00;8.80;99.90
52321;DHT22;38261;54.090;13.382;2023-10-08T03:00:22;8.80;99.90
52321;DHT22;38261;54.090;13.382;2023-10-08T03:01:51;8.70;99.90
52321;DHT22;38261;54.090;13.382;2023-10-08T03:03:19;8.70;99.90
52321;DHT22;38261;54.090;13.382;2023-10-08T03:04:42;8.60;99.90
52321;DHT22;38261;54.090;13.382;2023-10-08T03:06:07;8.50;99.90
52321;DHT22;38261;54.090;13.382;2023-10-08T03:07:33;8.50;99.90
52321;DHT22;38261;54.090;13.382;2023-10-08T03:08:58;8.50;99.90
52321;DHT22;38261;54.090;13.382;2023-10-08T03:10:25;8.50;99.90
52321;DHT22;38261;54.090;13.382;2023-10-08T03:11:54;8.40;99.90
52321;DHT22;38261;54.090;13.382;2023-10-08T03:13:17;8.40;99.90
52321;DHT22;38261;54.090;13.382;2023-10-08T03:14:40;8.40;99.90
52321;DHT22;38261;54.090;13.382;2023-10-08T03:16:21;8.30;99.90
52321;DHT22;38261;54.090;13.382;2023-10-08T03:17:50;8.30;99.90
52321;DHT22;38261;54.090;13.382;2023-10-08T03:19:16;8.30;99.90
52321;DHT22;38261;54.090;13.382;2023-10-08T03:20:41;8.20;99.90
52321;DHT22;38261;54.090;13.382;2023-10-08T03:22:08;8.20;99.90
52321;DHT22;38261;54.090;13.382;2023-10-08T03:23:32;8.20;99.90
52321;DHT22;38261;54.090;13.382;2023-10-08T03:24:58;8.10;99.90
52321;DHT22;38261;54.090;13.382;2023-10-08T03:26:36;8.20;99.90
52321;DHT22;38261;54.090;13.382;2023-10-08T03:28:00;8.10;99.90
52321;DHT22;38261;54.090;13.382;2023-10-08T03:29:22;8.10;99.90
52321;DHT22;38261;54.090;13.382;2023-10-08T03:30:46;8.10;99.90
52321;DHT22;38261;54.090;13.382;2023-10-08T03:32:13;8.10;99.90
52321;DHT22;38261;54.090;13.382;2023-10-08T03:33:37;8.10;99.90
52321;DHT22;38261;54.090;13.382;2023-10-08T03:35:00;8.00;99.90
52321;DHT22;38261;54.090;13.382;2023-10-08T03:36:22;8.00;99.90
52321;DHT22;38261;54.090;13.382;2023-10-08T03:37:56;8.00;99.90
52321;DHT22;38261;54.090;13.382;2023-10-08T03:39:38;8.00;99.90
52321;DHT22;38261;54.090;13.382;2023-10-08T03:41:25;7.90;99.90
52321;DHT22;38261;54.090;13.382;2023-10-08T03:42:52;7.90;99.90
52321;DHT22;38261;54.090;13.382;2023-10-08T03:44:17;7.80;99.90
52321;DHT22;38261;54.090;13.382;2023-10-08T03:45:42;7.80;99.90
52321;DHT22;38261;54.090;13.382;2023-10-08T03:47:15;7.70;99.90
52321;DHT22;38261;54.090;13.382;2023-10-08T03:48:43;7.70;99.90
52321;DHT22;38261;54.090;13.382;2023-10-08T03:51:33;7.60;99.90
52321;DHT22;38261;54.090;13.382;2023-10-08T03:53:01;7.60;99.90
52321;DHT22;38261;54.090;13.382;2023-10-08T03:54:24;7.50;99.90
52321;DHT22;38261;54.090;13.382;2023-10-08T03:55:57;7.40;99.90
52321;DHT22;38261;54.090;13.382;2023-10-08T03:57:22;7.40;99.90
52321;DHT22;38261;54.090;13.382;2023-10-08T03:59:03;7.40;99.90
52321;DHT22;38261;54.090;13.382;2023-10-08T04:00:35;7.40;99.90
52321;DHT22;38261;54.090;13.382;2023-10-08T04:02:03;7.30;99.90
52321;DHT22;38261;54.090;13.382;2023-10-08T04:03:45;7.30;99.90
52321;DHT22;38261;54.090;13.382;2023-10-08T04:05:14;7.20;99.90
52321;DHT22;38261;54.090;13.382;2023-10-08T04:06:43;7.20;99.90
52321;DHT22;38261;54.090;13.382;2023-10-08T04:08:13;7.20;99.90
52321;DHT22;38261;54.090;13.382;2023-10-08T04:10:05;7.10;99.90
52321;DHT22;38261;54.090;13.382;2023-10-08T04:11:33;7.10;99.90
52321;DHT22;38261;54.090;13.382;2023-10-08T04:12:58;7.00;99.90
52321;DHT22;38261;54.090;13.382;2023-10-08T04:14:24;7.00;99.90
52321;DHT22;38261;54.090;13.382;2023-10-08T04:15:47;6.90;99.90
52321;DHT22;38261;54.090;13.382;2023-10-08T04:17:10;6.90;99.90
52321;DHT22;38261;54.090;13.382;2023-10-08T04:18:32;6.90;99.90
52321;DHT22;38261;54.090;13.382;2023-10-08T04:20:02;6.80;99.90
52321;DHT22;38261;54.090;13.382;2023-10-08T04:21:30;6.80;99.90
52321;DHT22;38261;54.090;13.382;2023-10-08T04:22:56;6.70;99.90
52321;DHT22;38261;54.090;13.382;2023-10-08T04:24:25;6.70;99.90
52321;DHT22;38261;54.090;13.382;2023-10-08T04:25:50;6.70;99.90
52321;DHT22;38261;54.090;13.382;2023-10-08T04:27:16;6.70;99.90
52321;DHT22;38261;54.090;13.382;2023-10-08T04:28:40;6.70;99.90
52321;DHT22;38261;54.090;13.382;2023-10-08T04:30:03;6.70;99.90
52321;DHT22;38261;54.090;13.382;2023-10-08T04:31:25;6.60;99.90
52321;DHT22;38261;54.090;13.382;2023-10-08T04:32:50;6.60;99.90
52321;DHT22;38261;54.090;13.382;2023-10-08T04:34:15;6.60;99.90
52321;DHT22;38261;54.090;13.382;2023-10-08T04:35:45;6.60;99.90
52321;DHT22;38261;54.090;13.382;2023-10-08T04:37:10;6.60;99.90
52321;DHT22;38261;54.090;13.382;2023-10-08T04:38:39;6.60;99.90
52321;DHT22;38261;54.090;13.382;2023-10-08T04:40:02;6.60;99.90
52321;DHT22;38261;54.090;13.382;2023-10-08T04:41:27;6.60;99.90
52321;DHT22;38261;54.090;13.382;2023-10-08T04:42:49;6.50;99.90
52321;DHT22;38261;54.090;13.382;2023-10-08T04:44:12;6.50;99.90
52321;DHT22;38261;54.090;13.382;2023-10-08T04:45:37;6.50;99.90
52321;DHT22;38261;54.090;13.382;2023-10-08T04:47:01;6.50;99.90
52321;DHT22;38261;54.090;13.382;2023-10-08T04:48:27;6.50;99.90
52321;DHT22;38261;54.090;13.382;2023-10-08T04:49:53;6.40;99.90
52321;DHT22;38261;54.090;13.382;2023-10-08T04:51:16;6.40;99.90
52321;DHT22;38261;54.090;13.382;2023-10-08T04:52:39;6.40;99.90
52321;DHT22;38261;54.090;13.382;2023-10-08T04:54:08;6.40;99.90
52321;DHT22;38261;54.090;13.382;2023-10-08T04:55:30;6.40;99.90
52321;DHT22;38261;54.090;13.382;2023-10-08T04:56:53;6.30;99.90
52321;DHT22;38261;54.090;13.382;2023-10-08T04:58:15;6.30;99.90
52321;DHT22;38261;54.090;13.382;2023-10-08T04:59:43;6.30;99.90
52321;DHT22;38261;54.090;13.382;2023-10-08T05:01:09;6.30;99.90
52321;DHT22;38261;54.090;13.382;2023-10-08T05:02:41;6.20;99.90
52321;DHT22;38261;54.090;13.382;2023-10-08T05:04:14;6.20;99.90
52321;DHT22;38261;54.090;13.382;2023-10-08T05:05:47;6.20;99.90
52321;DHT22;38261;54.090;13.382;2023-10-08T05:07:27;6.20;99.90
52321;DHT22;38261;54.090;13.382;2023-10-08T05:09:22;6.20;99.90
52321;DHT22;38261;54.090;13.382;2023-10-08T05:10:44;6.20;99.90
52321;DHT22;38261;54.090;13.382;2023-10-08T05:12:23;6.10;99.90
52321;DHT22;38261;54.090;13.382;2023-10-08T05:13:54;6.20;99.90
52321;DHT22;38261;54.090;13.382;2023-10-08T05:15:38;6.20;99.90
52321;DHT22;38261;54.090;13.382;2023-10-08T05:17:24;6.20;99.90
52321;DHT22;38261;54.090;13.382;2023-10-08T05:18:56;6.20;99.90
52321;DHT22;38261;54.090;13.382;2023-10-08T05:20:56;6.20;99.90
52321;DHT22;38261;54.090;13.382;2023-10-08T05:22:24;6.20;99.90
52321;DHT22;38261;54.090;13.382;2023-10-08T05:24:06;6.20;99.90
52321;DHT22;38261;54.090;13.382;2023-10-08T05:25:42;6.20;99.90
52321;DHT22;38261;54.090;13.382;2023-10-08T05:27:19;6.20;99.90
52321;DHT22;38261;54.090;13.382;2023-10-08T05:29:05;6.20;99.90
52321;DHT22;38261;54.090;13.382;2023-10-08T05:30:48;6.20;99.90
52321;DHT22;38261;54.090;13.382;2023-10-08T05:32:28;6.10;99.90
52321;DHT22;38261;54.090;13.382;2023-10-08T05:34:06;6.10;99.90
52321;DHT22;38261;54.090;13.382;2023-10-08T05:35:41;6.10;99.90
52321;DHT22;38261;54.090;13.382;2023-10-08T05:37:04;6.10;99.90
52321;DHT22;38261;54.090;13.382;2023-10-08T05:38:26;6.20;99.90
52321;DHT22;38261;54.090;13.382;2023-10-08T05:39:51;6.20;99.90
52321;DHT22;38261;54.090;13.382;2023-10-08T05:41:32;6.20;99.90
52321;DHT22;38261;54.090;13.382;2023-10-08T05:43:01;6.20;99.90
52321;DHT22;38261;54.090;13.382;2023-10-08T05:44:36;6.20;99.90
52321;DHT22;38261;54.090;13.382;2023-10-08T05:46:02;6.20;99.90
52321;DHT22;38261;54.090;13.382;2023-10-08T05:47:43;6.30;99.90
52321;DHT22;38261;54.090;13.382;2023-10-08T05:49:25;6.30;99.90
52321;DHT22;38261;54.090;13.382;2023-10-08T05:51:10;6.30;99.90
52321;DHT22;38261;54.090;13.382;2023-10-08T05:52:47;6.40;99.90
52321;DHT22;38261;54.090;13.382;2023-10-08T05:54:17;6.40;99.90
52321;DHT22;38261;54.090;13.382;2023-10-08T05:55:49;6.40;99.90
52321;DHT22;38261;54.090;13.382;2023-10-08T05:57:23;6.50;99.90
52321;DHT22;38261;54.090;13.382;2023-10-08T05:59:01;6.40;99.90
52321;DHT22;38261;54.090;13.382;2023-10-08T06:00:36;6.50;99.90
52321;DHT22;38261;54.090;13.382;2023-10-08T06:02:24;6.50;99.90
52321;DHT22;38261;54.090;13.382;2023-10-08T06:03:58;6.50;99.90
52321;DHT22;38261;54.090;13.382;2023-10-08T06:05:43;6.50;99.90
52321;DHT22;38261;54.090;13.382;2023-10-08T06:07:05;6.50;99.90
52321;DHT22;38261;54.090;13.382;2023-10-08T06:08:55;6.60;99.90
52321;DHT22;38261;54.090;13.382;2023-10-08T06:10:29;6.60;99.90
52321;DHT22;38261;54.090;13.382;2023-10-08T06:11:52;6.60;99.90
52321;DHT22;38261;54.090;13.382;2023-10-08T06:13:34;6.60;99.90
52321;DHT22;38261;54.090;13.382;2023-10-08T06:15:07;6.60;99.90
52321;DHT22;38261;54.090;13.382;2023-10-08T06:16:30;6.70;99.90
52321;DHT22;38261;54.090;13.382;2023-10-08T06:18:03;6.70;99.90
52321;DHT22;38261;54.090;13.382;2023-10-08T06:19:31;6.80;99.90
52321;DHT22;38261;54.090;13.382;2023-10-08T06:20:54;6.80;99.90
52321;DHT22;38261;54.090;13.382;2023-10-08T06:22:17;6.90;99.90
52321;DHT22;38261;54.090;13.382;2023-10-08T06:23:41;6.90;99.90
52321;DHT22;38261;54.090;13.382;2023-10-08T06:25:05;7.00;99.90
52321;DHT22;38261;54.090;13.382;2023-10-08T06:26:45;7.00;99.90
52321;DHT22;38261;54.090;13.382;2023-10-08T06:28:17;7.10;99.90
52321;DHT22;38261;54.090;13.382;2023-10-08T06:29:43;7.20;99.90
52321;DHT22;38261;54.090;13.382;2023-10-08T06:31:07;7.20;99.90
52321;DHT22;38261;54.090;13.382;2023-10-08T06:32:34;7.30;99.90
52321;DHT22;38261;54.090;13.382;2023-10-08T06:33:56;7.40;99.90
52321;DHT22;38261;54.090;13.382;2023-10-08T06:35:19;7.40;99.90
52321;DHT22;38261;54.090;13.382;2023-10-08T06:36:50;7.40;99.90
52321;DHT22;38261;54.090;13.382;2023-10-08T06:38:18;7.50;99.90
52321;DHT22;38261;54.090;13.382;2023-10-08T06:39:40;7.50;99.90
52321;DHT22;38261;54.090;13.382;2023-10-08T06:41:12;7.40;99.90
52321;DHT22;38261;54.090;13.382;2023-10-08T06:42:35;7.40;99.90
52321;DHT22;38261;54.090;13.382;2023-10-08T06:43:57;7.40;99.90
52321;DHT22;38261;54.090;13.382;2023-10-08T06:45:25;7.40;99.90
52321;DHT22;38261;54.090;13.382;2023-10-08T06:46:50;7.50;99.90
52321;DHT22;38261;54.090;13.382;2023-10-08T06:48:14;7.50;99.90
52321;DHT22;38261;54.090;13.382;2023-10-08T06:49:43;7.60;99.90
52321;DHT22;38261;54.090;13.382;2023-10-08T06:51:07;7.70;99.90
52321;DHT22;38261;54.090;13.382;2023-10-08T06:52:34;7.80;99.90
52321;DHT22;38261;54.090;13.382;2023-10-08T06:53:58;7.80;99.90
52321;DHT22;38261;54.090;13.382;2023-10-08T06:55:24;7.90;99.90
52321;DHT22;38261;54.090;13.382;2023-10-08T06:56:49;8.00;99.90
52321;DHT22;38261;54.090;13.382;2023-10-08T06:58:14;8.10;99.90
52321;DHT22;38261;54.090;13.382;2023-10-08T06:59:37;8.20;99.90
52321;DHT22;38261;54.090;13.382;2023-10-08T07:01:05;8.20;99.90
52321;DHT22;38261;54.090;13.382;2023-10-08T07:02:27;8.30;99.90
52321;DHT22;38261;54.090;13.382;2023-10-08T07:03:50;8.40;99.90
52321;DHT22;38261;54.090;13.382;2023-10-08T07:05:14;8.50;99.90
52321;DHT22;38261;54.090;13.382;2023-10-08T07:06:38;8.60;99.90
52321;DHT22;38261;54.090;13.382;2023-10-08T07:09:28;8.70;99.90
52321;DHT22;38261;54.090;13.382;2023-10-08T07:10:51;8.80;99.90
52321;DHT22;38261;54.090;13.382;2023-10-08T07:12:13;8.80;99.90
52321;DHT22;38261;54.090;13.382;2023-10-08T07:13:36;8.90;99.90
52321;DHT22;38261;54.090;13.382;2023-10-08T07:14:59;9.00;99.90
52321;DHT22;38261;54.090;13.382;2023-10-08T07:16:23;9.10;99.90
52321;DHT22;38261;54.090;13.382;2023-10-08T07:17:45;9.10;99.90
52321;DHT22;38261;54.090;13.382;2023-10-08T07:19:08;9.20;99.90
52321;DHT22;38261;54.090;13.382;2023-10-08T07:20:44;9.30;99.90
52321;DHT22;38261;54.090;13.382;2023-10-08T07:22:08;9.30;99.90
52321;DHT22;38261;54.090;13.382;2023-10-08T07:23:51;9.40;99.90
52321;DHT22;38261;54.090;13.382;2023-10-08T07:25:21;9.50;99.90
52321;DHT22;38261;54.090;13.382;2023-10-08T07:26:44;9.60;99.90
52321;DHT22;38261;54.090;13.382;2023-10-08T07:28:09;9.80;99.90
52321;DHT22;38261;54.090;13.382;2023-10-08T07:29:35;9.90;99.90
52321;DHT22;38261;54.090;13.382;2023-10-08T07:30:57;10.00;99.90
52321;DHT22;38261;54.090;13.382;2023-10-08T07:32:19;10.10;99.90
52321;DHT22;38261;54.090;13.382;2023-10-08T07:33:51;10.20;99.90
52321;DHT22;38261;54.090;13.382;2023-10-08T07:35:37;10.30;99.90
52321;DHT22;38261;54.090;13.382;2023-10-08T07:37:01;10.40;99.90
52321;DHT22;38261;54.090;13.382;2023-10-08T07:38:25;10.50;99.90
52321;DHT22;38261;54.090;13.382;2023-10-08T07:39:49;10.60;99.90
52321;DHT22;38261;54.090;13.382;2023-10-08T07:41:16;10.70;99.90
52321;DHT22;38261;54.090;13.382;2023-10-08T07:42:39;10.90;99.90
52321;DHT22;38261;54.090;13.382;2023-10-08T07:44:01;11.00;99.90
52321;DHT22;38261;54.090;13.382;2023-10-08T07:45:23;11.20;99.90
52321;DHT22;38261;54.090;13.382;2023-10-08T07:46:46;11.40;99.90
52321;DHT22;38261;54.090;13.382;2023-10-08T07:48:09;11.50;99.90
52321;DHT22;38261;54.090;13.382;2023-10-08T07:49:32;11.50;99.90
52321;DHT22;38261;54.090;13.382;2023-10-08T07:50:54;11.40;99.90
52321;DHT22;38261;54.090;13.382;2023-10-08T07:52:17;11.30;99.90
52321;DHT22;38261;54.090;13.382;2023-10-08T07:53:39;11.10;99.90
52321;DHT22;38261;54.090;13.382;2023-10-08T07:55:03;11.00;99.90
52321;DHT22;38261;54.090;13.382;2023-10-08T07:56:26;11.00;99.90
52321;DHT22;38261;54.090;13.382;2023-10-08T07:57:49;11.00;99.90
52321;DHT22;38261;54.090;13.382;2023-10-08T07:59:11;10.90;99.90
52321;DHT22;38261;54.090;13.382;2023-10-08T08:00:36;10.80;99.90
52321;DHT22;38261;54.090;13.382;2023-10-08T08:02:01;10.70;99.90
52321;DHT22;38261;54.090;13.382;2023-10-08T08:03:24;10.70;99.90
52321;DHT22;38261;54.090;13.382;2023-10-08T08:04:51;10.70;99.90
52321;DHT22;38261;54.090;13.382;2023-10-08T08:06:15;10.60;99.90
52321;DHT22;38261;54.090;13.382;2023-10-08T08:07:37;10.60;99.90
52321;DHT22;38261;54.090;13.382;2023-10-08T08:09:00;10.50;99.90
52321;DHT22;38261;54.090;13.382;2023-10-08T08:10:22;10.50;99.90
52321;DHT22;38261;54.090;13.382;2023-10-08T08:11:49;10.50;99.90
52321;DHT22;38261;54.090;13.382;2023-10-08T08:13:11;10.60;99.90
52321;DHT22;38261;54.090;13.382;2023-10-08T08:14:33;10.60;99.90
52321;DHT22;38261;54.090;13.382;2023-10-08T08:15:59;10.70;99.90
52321;DHT22;38261;54.090;13.382;2023-10-08T08:17:31;10.80;99.90
52321;DHT22;38261;54.090;13.382;2023-10-08T08:18:54;11.00;99.90
52321;DHT22;38261;54.090;13.382;2023-10-08T08:20:21;11.20;99.90
52321;DHT22;38261;54.090;13.382;2023-10-08T08:21:44;11.50;99.90
52321;DHT22;38261;54.090;13.382;2023-10-08T08:23:07;11.80;99.90
52321;DHT22;38261;54.090;13.382;2023-10-08T08:24:29;11.90;99.90
52321;DHT22;38261;54.090;13.382;2023-10-08T08:25:58;12.10;99.90
52321;DHT22;38261;54.090;13.382;2023-10-08T08:27:43;12.20;99.90
52321;DHT22;38261;54.090;13.382;2023-10-08T08:29:11;12.20;99.90
52321;DHT22;38261;54.090;13.382;2023-10-08T08:30:37;12.10;99.90
52321;DHT22;38261;54.090;13.382;2023-10-08T08:32:01;12.00;99.90
52321;DHT22;38261;54.090;13.382;2023-10-08T08:33:26;11.90;99.90
52321;DHT22;38261;54.090;13.382;2023-10-08T08:34:57;11.80;99.90
52321;DHT22;38261;54.090;13.382;2023-10-08T08:36:20;11.70;99.90
52321;DHT22;38261;54.090;13.382;2023-10-08T08:37:46;11.70;99.90
52321;DHT22;38261;54.090;13.382;2023-10-08T08:39:12;11.60;99.90
52321;DHT22;38261;54.090;13.382;2023-10-08T08:41:04;11.60;99.90
52321;DHT22;38261;54.090;13.382;2023-10-08T08:42:31;11.50;99.90
52321;DHT22;38261;54.090;13.382;2023-10-08T08:43:57;11.50;99.90
52321;DHT22;38261;54.090;13.382;2023-10-08T08:45:26;11.40;99.90
52321;DHT22;38261;54.090;13.382;2023-10-08T08:46:49;11.40;99.90
52321;DHT22;38261;54.090;13.382;2023-10-08T08:48:12;11.50;99.90
52321;DHT22;38261;54.090;13.382;2023-10-08T08:49:37;11.60;99.90
52321;DHT22;38261;54.090;13.382;2023-10-08T08:51:00;11.70;99.90
52321;DHT22;38261;54.090;13.382;2023-10-08T08:52:22;11.90;99.90
52321;DHT22;38261;54.090;13.382;2023-10-08T08:53:45;12.00;99.90
52321;DHT22;38261;54.090;13.382;2023-10-08T08:55:09;12.10;99.90
52321;DHT22;38261;54.090;13.382;2023-10-08T08:56:39;12.20;99.90
52321;DHT22;38261;54.090;13.382;2023-10-08T08:58:04;12.30;99.90
52321;DHT22;38261;54.090;13.382;2023-10-08T08:59:33;12.30;99.90
52321;DHT22;38261;54.090;13.382;2023-10-08T09:00:59;12.30;99.90
52321;DHT22;38261;54.090;13.382;2023-10-08T09:02:22;12.20;99.90
52321;DHT22;38261;54.090;13.382;2023-10-08T09:03:45;12.10;99.90
52321;DHT22;38261;54.090;13.382;2023-10-08T09:05:11;12.20;99.90
52321;DHT22;38261;54.090;13.382;2023-10-08T09:06:46;12.20;99.90
52321;DHT22;38261;54.090;13.382;2023-10-08T09:08:09;12.20;99.90
52321;DHT22;38261;54.090;13.382;2023-10-08T09:09:32;12.30;99.90
52321;DHT22;38261;54.090;13.382;2023-10-08T09:10:57;12.30;99.90